sensor_id;sensor_type;location;lat;lon;timestamp;temperature;humidity
16402;DHT22;8310;44.626;11.176;2023-04-01T00:00:07;15.30;50.50
16402;DHT22;8310;44.626;11.176;2023-04-01T00:02:35;15.20;50.30
16402;DHT22;8310;44.626;11.176;2023-04-01T00:05:04;15.20;50.30
16402;DHT22;8310;44.626;11.176;2023-04-01T00:07:34;15.10;50.90
16402;DHT22;8310;44.626;11.176;2023-04-01T00:10:04;15.00;53.90
16402;DHT22;8310;44.626;11.176;2023-04-01T00:12:32;14.90;52.10
16402;DHT22;8310;44.626;11.176;2023-04-01T00:15:01;14.80;51.40
16402;DHT22;8310;44.626;11.176;2023-04-01T00:17:29;14.70;51.10
16402;DHT22;8310;44.626;11.176;2023-04-01T00:19:57;14.70;51.90
16402;DHT22;8310;44.626;11.176;2023-04-01T00:22:25;14.70;52.60
16402;DHT22;8310;44.626;11.176;2023-04-01T00:24:54;14.60;54.60
16402;DHT22;8310;44.626;11.176;2023-04-01T00:27:22;14.50;51.70
16402;DHT22;8310;44.626;11.176;2023-04-01T00:29:50;14.40;51.20
16402;DHT22;8310;44.626;11.176;2023-04-01T00:32:18;14.30;50.90
16402;DHT22;8310;44.626;11.176;2023-04-01T00:34:50;14.30;50.90
16402;DHT22;8310;44.626;11.176;2023-04-01T00:37:18;14.30;51.20
16402;DHT22;8310;44.626;11.176;2023-04-01T00:39:47;14.30;50.90
16402;DHT22;8310;44.626;11.176;2023-04-01T00:42:16;14.30;51.00
16402;DHT22;8310;44.626;11.176;2023-04-01T00:44:47;14.30;50.90
16402;DHT22;8310;44.626;11.176;2023-04-01T00:47:15;14.30;51.00
16402;DHT22;8310;44.626;11.176;2023-04-01T00:49:45;14.30;50.90
16402;DHT22;8310;44.626;11.176;2023-04-01T00:52:16;14.30;50.90
16402;DHT22;8310;44.626;11.176;2023-04-01T00:54:47;14.30;51.30
16402;DHT22;8310;44.626;11.176;2023-04-01T00:57:22;14.30;51.30
16402;DHT22;8310;44.626;11.176;2023-04-01T00:59:52;14.30;51.00
16402;DHT22;8310;44.626;11.176;2023-04-01T01:02:22;14.30;51.00
16402;DHT22;8310;44.626;11.176;2023-04-01T01:04:50;14.30;50.90
16402;DHT22;8310;44.626;11.176;2023-04-01T01:07:26;14.30;50.90
16402;DHT22;8310;44.626;11.176;2023-04-01T01:10:02;14.30;50.80
16402;DHT22;8310;44.626;11.176;2023-04-01T01:12:35;14.30;50.80
16402;DHT22;8310;44.626;11.176;2023-04-01T01:15:11;14.30;50.70
16402;DHT22;8310;44.626;11.176;2023-04-01T01:17:50;14.20;51.10
16402;DHT22;8310;44.626;11.176;2023-04-01T01:20:57;14.10;50.80
16402;DHT22;8310;44.626;11.176;2023-04-01T01:26:40;14.00;50.80
16402;DHT22;8310;44.626;11.176;2023-04-01T01:32:09;13.80;51.10
16402;DHT22;8310;44.626;11.176;2023-04-01T01:34:44;13.70;52.50
16402;DHT22;8310;44.626;11.176;2023-04-01T01:37:17;13.70;56.60
16402;DHT22;8310;44.626;11.176;2023-04-01T01:39:56;13.60;62.70
16402;DHT22;8310;44.626;11.176;2023-04-01T01:42:26;13.50;61.90
16402;DHT22;8310;44.626;11.176;2023-04-01T01:44:56;13.40;63.10
16402;DHT22;8310;44.626;11.176;2023-04-01T01:47:25;13.20;62.20
16402;DHT22;8310;44.626;11.176;2023-04-01T01:49:55;13.10;60.30
16402;DHT22;8310;44.626;11.176;2023-04-01T01:52:26;12.90;62.40
16402;DHT22;8310;44.626;11.176;2023-04-01T01:54:57;12.80;61.60
16402;DHT22;8310;44.626;11.176;2023-04-01T01:57:27;12.80;59.10
16402;DHT22;8310;44.626;11.176;2023-04-01T01:59:58;12.70;57.50
16402;DHT22;8310;44.626;11.176;2023-04-01T02:02:27;12.70;56.10
16402;DHT22;8310;44.626;11.176;2023-04-01T02:04:57;12.70;56.00
16402;DHT22;8310;44.626;11.176;2023-04-01T02:07:30;12.70;55.20
16402;DHT22;8310;44.626;11.176;2023-04-01T02:09:59;12.70;56.60
16402;DHT22;8310;44.626;11.176;2023-04-01T02:12:27;12.80;61.20
16402;DHT22;8310;44.626;11.176;2023-04-01T02:15:00;12.70;58.10
16402;DHT22;8310;44.626;11.176;2023-04-01T02:17:30;12.70;61.90
16402;DHT22;8310;44.626;11.176;2023-04-01T02:20:01;12.60;62.50
16402;DHT22;8310;44.626;11.176;2023-04-01T02:22:34;12.60;60.90
16402;DHT22;8310;44.626;11.176;2023-04-01T02:25:07;12.50;56.50
16402;DHT22;8310;44.626;11.176;2023-04-01T02:27:35;12.40;59.00
16402;DHT22;8310;44.626;11.176;2023-04-01T02:30:05;12.40;60.20
16402;DHT22;8310;44.626;11.176;2023-04-01T02:32:35;12.40;61.00
16402;DHT22;8310;44.626;11.176;2023-04-01T02:35:06;12.40;55.80
16402;DHT22;8310;44.626;11.176;2023-04-01T02:37:38;12.40;55.50
16402;DHT22;8310;44.626;11.176;2023-04-01T02:40:10;12.30;57.70
16402;DHT22;8310;44.626;11.176;2023-04-01T02:42:39;12.30;57.50
16402;DHT22;8310;44.626;11.176;2023-04-01T02:45:08;12.30;59.60
16402;DHT22;8310;44.626;11.176;2023-04-01T02:47:39;12.20;62.40
16402;DHT22;8310;44.626;11.176;2023-04-01T02:50:08;12.20;64.20
16402;DHT22;8310;44.626;11.176;2023-04-01T02:52:37;12.20;63.30
16402;DHT22;8310;44.626;11.176;2023-04-01T02:55:06;12.10;61.90
16402;DHT22;8310;44.626;11.176;2023-04-01T02:57:33;12.10;64.40
16402;DHT22;8310;44.626;11.176;2023-04-01T03:00:02;12.00;60.50
16402;DHT22;8310;44.626;11.176;2023-04-01T03:02:38;11.90;58.10
16402;DHT22;8310;44.626;11.176;2023-04-01T03:05:06;11.90;55.80
16402;DHT22;8310;44.626;11.176;2023-04-01T03:07:34;11.90;58.10
16402;DHT22;8310;44.626;11.176;2023-04-01T03:10:05;11.90;59.90
16402;DHT22;8310;44.626;11.176;2023-04-01T03:12:33;11.80;64.20
16402;DHT22;8310;44.626;11.176;2023-04-01T03:15:00;11.80;57.90
16402;DHT22;8310;44.626;11.176;2023-04-01T03:17:28;11.70;55.80
16402;DHT22;8310;44.626;11.176;2023-04-01T03:19:56;11.80;56.20
16402;DHT22;8310;44.626;11.176;2023-04-01T03:22:24;11.70;57.40
16402;DHT22;8310;44.626;11.176;2023-04-01T03:24:53;11.70;57.90
16402;DHT22;8310;44.626;11.176;2023-04-01T03:27:22;11.70;59.70
16402;DHT22;8310;44.626;11.176;2023-04-01T03:29:50;11.70;59.70
16402;DHT22;8310;44.626;11.176;2023-04-01T03:32:18;11.60;61.60
16402;DHT22;8310;44.626;11.176;2023-04-01T03:34:46;11.50;57.60
16402;DHT22;8310;44.626;11.176;2023-04-01T03:37:13;11.50;56.30
16402;DHT22;8310;44.626;11.176;2023-04-01T03:39:41;11.50;55.40
16402;DHT22;8310;44.626;11.176;2023-04-01T03:42:13;11.50;55.00
16402;DHT22;8310;44.626;11.176;2023-04-01T03:44:46;11.50;54.70
16402;DHT22;8310;44.626;11.176;2023-04-01T03:47:14;11.60;54.70
16402;DHT22;8310;44.626;11.176;2023-04-01T03:49:42;11.60;54.40
16402;DHT22;8310;44.626;11.176;2023-04-01T03:52:10;11.60;54.20
16402;DHT22;8310;44.626;11.176;2023-04-01T03:54:40;11.60;54.20
16402;DHT22;8310;44.626;11.176;2023-04-01T03:57:09;11.60;54.20
16402;DHT22;8310;44.626;11.176;2023-04-01T03:59:36;11.70;54.20
16402;DHT22;8310;44.626;11.176;2023-04-01T04:02:06;11.70;54.10
16402;DHT22;8310;44.626;11.176;2023-04-01T04:04:34;11.80;54.10
16402;DHT22;8310;44.626;11.176;2023-04-01T04:07:03;11.80;54.10
16402;DHT22;8310;44.626;11.176;2023-04-01T04:09:31;11.80;55.50
16402;DHT22;8310;44.626;11.176;2023-04-01T04:11:59;11.70;59.60
16402;DHT22;8310;44.626;11.176;2023-04-01T04:14:27;11.50;62.60
16402;DHT22;8310;44.626;11.176;2023-04-01T04:16:55;11.40;66.10
16402;DHT22;8310;44.626;11.176;2023-04-01T04:19:25;11.30;64.90
16402;DHT22;8310;44.626;11.176;2023-04-01T04:21:53;11.10;59.80
16402;DHT22;8310;44.626;11.176;2023-04-01T04:24:27;11.00;60.50
16402;DHT22;8310;44.626;11.176;2023-04-01T04:26:54;10.90;59.80
16402;DHT22;8310;44.626;11.176;2023-04-01T04:29:22;10.80;63.20
16402;DHT22;8310;44.626;11.176;2023-04-01T04:31:49;10.70;63.10
16402;DHT22;8310;44.626;11.176;2023-04-01T04:34:17;10.60;65.60
16402;DHT22;8310;44.626;11.176;2023-04-01T04:36:48;10.50;64.60
16402;DHT22;8310;44.626;11.176;2023-04-01T04:39:15;10.50;60.30
16402;DHT22;8310;44.626;11.176;2023-04-01T04:41:44;10.40;61.60
16402;DHT22;8310;44.626;11.176;2023-04-01T04:44:11;10.40;59.80
16402;DHT22;8310;44.626;11.176;2023-04-01T04:46:44;10.30;59.90
16402;DHT22;8310;44.626;11.176;2023-04-01T04:49:12;10.30;57.00
16402;DHT22;8310;44.626;11.176;2023-04-01T04:51:42;10.40;56.40
16402;DHT22;8310;44.626;11.176;2023-04-01T04:54:11;10.40;63.50
16402;DHT22;8310;44.626;11.176;2023-04-01T04:56:40;10.40;63.70
16402;DHT22;8310;44.626;11.176;2023-04-01T04:59:09;10.40;62.10
16402;DHT22;8310;44.626;11.176;2023-04-01T05:01:36;10.40;59.70
16402;DHT22;8310;44.626;11.176;2023-04-01T05:04:04;10.40;61.70
16402;DHT22;8310;44.626;11.176;2023-04-01T05:06:32;10.40;61.90
16402;DHT22;8310;44.626;11.176;2023-04-01T05:09:00;10.40;64.00
16402;DHT22;8310;44.626;11.176;2023-04-01T05:11:30;10.40;67.10
16402;DHT22;8310;44.626;11.176;2023-04-01T05:13:58;10.40;66.80
16402;DHT22;8310;44.626;11.176;2023-04-01T05:16:26;10.40;66.50
16402;DHT22;8310;44.626;11.176;2023-04-01T05:18:54;10.40;67.90
16402;DHT22;8310;44.626;11.176;2023-04-01T05:21:22;10.40;70.20
16402;DHT22;8310;44.626;11.176;2023-04-01T05:23:50;10.40;71.30
16402;DHT22;8310;44.626;11.176;2023-04-01T05:26:18;10.50;71.10
16402;DHT22;8310;44.626;11.176;2023-04-01T05:28:47;10.60;67.60
16402;DHT22;8310;44.626;11.176;2023-04-01T05:31:16;10.60;67.20
16402;DHT22;8310;44.626;11.176;2023-04-01T05:33:43;10.70;68.70
16402;DHT22;8310;44.626;11.176;2023-04-01T05:36:13;10.80;67.50
16402;DHT22;8310;44.626;11.176;2023-04-01T05:38:42;10.90;68.00
16402;DHT22;8310;44.626;11.176;2023-04-01T05:41:11;11.10;64.40
16402;DHT22;8310;44.626;11.176;2023-04-01T05:43:40;11.20;61.50
16402;DHT22;8310;44.626;11.176;2023-04-01T05:46:09;11.30;64.40
16402;DHT22;8310;44.626;11.176;2023-04-01T05:48:37;11.40;62.30
16402;DHT22;8310;44.626;11.176;2023-04-01T05:51:05;11.60;67.50
16402;DHT22;8310;44.626;11.176;2023-04-01T05:53:32;11.80;67.30
16402;DHT22;8310;44.626;11.176;2023-04-01T05:56:03;12.10;68.50
16402;DHT22;8310;44.626;11.176;2023-04-01T05:58:31;12.40;68.20
16402;DHT22;8310;44.626;11.176;2023-04-01T06:01:03;12.70;68.20
16402;DHT22;8310;44.626;11.176;2023-04-01T06:03:34;13.00;67.40
16402;DHT22;8310;44.626;11.176;2023-04-01T06:06:02;13.40;67.60
16402;DHT22;8310;44.626;11.176;2023-04-01T06:08:31;13.60;67.50
16402;DHT22;8310;44.626;11.176;2023-04-01T06:11:10;14.00;67.40
16402;DHT22;8310;44.626;11.176;2023-04-01T06:13:57;14.40;67.20
16402;DHT22;8310;44.626;11.176;2023-04-01T06:16:35;14.80;66.90
16402;DHT22;8310;44.626;11.176;2023-04-01T06:19:19;15.20;67.30
16402;DHT22;8310;44.626;11.176;2023-04-01T06:22:33;15.70;67.50
16402;DHT22;8310;44.626;11.176;2023-04-01T06:25:24;16.30;67.90
16402;DHT22;8310;44.626;11.176;2023-04-01T06:28:05;16.90;67.60
16402;DHT22;8310;44.626;11.176;2023-04-01T06:30:40;17.40;67.80
16402;DHT22;8310;44.626;11.176;2023-04-01T06:33:29;17.80;67.60
16402;DHT22;8310;44.626;11.176;2023-04-01T06:36:51;18.30;66.70
16402;DHT22;8310;44.626;11.176;2023-04-01T06:42:52;18.90;64.40
16402;DHT22;8310;44.626;11.176;2023-04-01T06:45:50;19.00;62.30
16402;DHT22;8310;44.626;11.176;2023-04-01T06:48:34;18.80;60.70
16402;DHT22;8310;44.626;11.176;2023-04-01T06:51:16;18.60;59.60
16402;DHT22;8310;44.626;11.176;2023-04-01T06:53:54;18.20;59.40
16402;DHT22;8310;44.626;11.176;2023-04-01T06:56:26;17.80;60.10
16402;DHT22;8310;44.626;11.176;2023-04-01T06:58:57;17.50;61.00
16402;DHT22;8310;44.626;11.176;2023-04-01T07:01:32;17.30;62.10
16402;DHT22;8310;44.626;11.176;2023-04-01T07:04:09;17.10;62.20
16402;DHT22;8310;44.626;11.176;2023-04-01T07:06:45;17.00;62.20
16402;DHT22;8310;44.626;11.176;2023-04-01T07:09:19;17.00;62.70
16402;DHT22;8310;44.626;11.176;2023-04-01T07:11:50;17.00;61.50
16402;DHT22;8310;44.626;11.176;2023-04-01T07:14:22;17.00;61.50
16402;DHT22;8310;44.626;11.176;2023-04-01T07:16:54;17.00;60.90
16402;DHT22;8310;44.626;11.176;2023-04-01T07:19:30;17.10;62.20
16402;DHT22;8310;44.626;11.176;2023-04-01T07:22:03;17.10;61.80
16402;DHT22;8310;44.626;11.176;2023-04-01T07:24:36;17.20;61.00
16402;DHT22;8310;44.626;11.176;2023-04-01T07:27:09;17.20;61.00
16402;DHT22;8310;44.626;11.176;2023-04-01T07:29:37;17.30;60.80
16402;DHT22;8310;44.626;11.176;2023-04-01T07:32:20;17.40;59.60
16402;DHT22;8310;44.626;11.176;2023-04-01T07:35:00;17.40;59.40
16402;DHT22;8310;44.626;11.176;2023-04-01T07:37:34;17.50;59.50
16402;DHT22;8310;44.626;11.176;2023-04-01T07:40:18;17.60;59.80
16402;DHT22;8310;44.626;11.176;2023-04-01T07:43:07;17.60;59.00
16402;DHT22;8310;44.626;11.176;2023-04-01T07:45:48;17.70;58.60
16402;DHT22;8310;44.626;11.176;2023-04-01T07:48:23;17.70;58.70
16402;DHT22;8310;44.626;11.176;2023-04-01T07:50:57;17.80;58.60
16402;DHT22;8310;44.626;11.176;2023-04-01T07:53:33;17.80;59.00
16402;DHT22;8310;44.626;11.176;2023-04-01T07:56:06;17.90;58.50
16402;DHT22;8310;44.626;11.176;2023-04-01T07:58:44;18.00;58.30
16402;DHT22;8310;44.626;11.176;2023-04-01T08:01:25;18.10;58.30
16402;DHT22;8310;44.626;11.176;2023-04-01T08:04:17;18.20;58.30
16402;DHT22;8310;44.626;11.176;2023-04-01T08:06:55;18.30;58.40
16402;DHT22;8310;44.626;11.176;2023-04-01T08:09:28;18.40;58.40
16402;DHT22;8310;44.626;11.176;2023-04-01T08:12:13;18.50;58.40
16402;DHT22;8310;44.626;11.176;2023-04-01T08:14:52;18.70;58.30
16402;DHT22;8310;44.626;11.176;2023-04-01T08:17:26;18.80;58.30
16402;DHT22;8310;44.626;11.176;2023-04-01T08:20:07;19.00;58.40
16402;DHT22;8310;44.626;11.176;2023-04-01T08:22:42;19.10;58.10
16402;DHT22;8310;44.626;11.176;2023-04-01T08:25:16;19.20;58.10
16402;DHT22;8310;44.626;11.176;2023-04-01T08:27:48;19.30;58.00
16402;DHT22;8310;44.626;11.176;2023-04-01T08:30:23;19.30;58.00
16402;DHT22;8310;44.626;11.176;2023-04-01T08:32:54;19.50;57.60
16402;DHT22;8310;44.626;11.176;2023-04-01T08:35:29;19.60;56.80
16402;DHT22;8310;44.626;11.176;2023-04-01T08:38:01;19.70;57.50
16402;DHT22;8310;44.626;11.176;2023-04-01T08:40:50;19.70;57.60
16402;DHT22;8310;44.626;11.176;2023-04-01T08:46:25;19.90;57.80
16402;DHT22;8310;44.626;11.176;2023-04-01T08:49:04;19.90;56.80
16402;DHT22;8310;44.626;11.176;2023-04-01T08:52:05;20.00;57.40
16402;DHT22;8310;44.626;11.176;2023-04-01T08:54:46;20.10;56.10
16402;DHT22;8310;44.626;11.176;2023-04-01T08:57:21;20.20;57.80
16402;DHT22;8310;44.626;11.176;2023-04-01T09:00:03;20.20;57.80
16402;DHT22;8310;44.626;11.176;2023-04-01T09:08:17;20.50;57.40
16402;DHT22;8310;44.626;11.176;2023-04-01T09:11:04;20.60;57.00
16402;DHT22;8310;44.626;11.176;2023-04-01T09:13:52;20.70;57.40
16402;DHT22;8310;44.626;11.176;2023-04-01T09:16:57;20.70;57.60
16402;DHT22;8310;44.626;11.176;2023-04-01T09:19:43;20.80;57.60
16402;DHT22;8310;44.626;11.176;2023-04-01T09:22:29;21.00;57.80
16402;DHT22;8310;44.626;11.176;2023-04-01T09:25:21;21.10;57.60
16402;DHT22;8310;44.626;11.176;2023-04-01T09:27:56;21.20;57.70
16402;DHT22;8310;44.626;11.176;2023-04-01T09:34:02;21.40;57.70
16402;DHT22;8310;44.626;11.176;2023-04-01T09:36:47;21.50;57.10
16402;DHT22;8310;44.626;11.176;2023-04-01T09:39:37;21.60;57.20
16402;DHT22;8310;44.626;11.176;2023-04-01T09:42:23;21.60;58.10
16402;DHT22;8310;44.626;11.176;2023-04-01T09:44:59;21.70;57.50
16402;DHT22;8310;44.626;11.176;2023-04-01T09:47:43;21.80;57.30
16402;DHT22;8310;44.626;11.176;2023-04-01T09:50:34;21.80;57.20
16402;DHT22;8310;44.626;11.176;2023-04-01T09:53:22;21.90;57.40
16402;DHT22;8310;44.626;11.176;2023-04-01T09:56:23;22.00;57.50
16402;DHT22;8310;44.626;11.176;2023-04-01T09:59:24;22.10;57.60
16402;DHT22;8310;44.626;11.176;2023-04-01T10:02:27;22.20;56.90
16402;DHT22;8310;44.626;11.176;2023-04-01T10:08:36;22.30;56.30
16402;DHT22;8310;44.626;11.176;2023-04-01T10:11:48;22.40;56.20
16402;DHT22;8310;44.626;11.176;2023-04-01T10:14:42;22.50;56.70
16402;DHT22;8310;44.626;11.176;2023-04-01T10:17:49;22.60;57.10
16402;DHT22;8310;44.626;11.176;2023-04-01T10:20:40;22.60;57.00
16402;DHT22;8310;44.626;11.176;2023-04-01T10:49:09;23.50;56.40
16402;DHT22;8310;44.626;11.176;2023-04-01T10:54:59;23.60;56.40
16402;DHT22;8310;44.626;11.176;2023-04-01T10:57:57;23.70;56.50
16402;DHT22;8310;44.626;11.176;2023-04-01T11:01:22;23.80;56.70
16402;DHT22;8310;44.626;11.176;2023-04-01T11:04:32;23.90;56.80
16402;DHT22;8310;44.626;11.176;2023-04-01T11:11:15;24.10;56.70
16402;DHT22;8310;44.626;11.176;2023-04-01T11:17:38;24.30;56.50
16402;DHT22;8310;44.626;11.176;2023-04-01T11:24:16;24.50;56.50
16402;DHT22;8310;44.626;11.176;2023-04-01T11:26:56;24.60;56.10
16402;DHT22;8310;44.626;11.176;2023-04-01T11:32:43;24.80;56.60
16402;DHT22;8310;44.626;11.176;2023-04-01T11:38:50;25.00;56.40
16402;DHT22;8310;44.626;11.176;2023-04-01T11:41:31;25.10;55.10
16402;DHT22;8310;44.626;11.176;2023-04-01T11:44:16;25.10;48.80
16402;DHT22;8310;44.626;11.176;2023-04-01T11:46:57;25.00;48.40
16402;DHT22;8310;44.626;11.176;2023-04-01T11:49:42;24.90;54.30
16402;DHT22;8310;44.626;11.176;2023-04-01T11:52:24;25.00;55.30
16402;DHT22;8310;44.626;11.176;2023-04-01T11:55:06;25.10;55.30
16402;DHT22;8310;44.626;11.176;2023-04-01T11:57:51;25.20;55.40
16402;DHT22;8310;44.626;11.176;2023-04-01T12:00:37;25.20;55.60
16402;DHT22;8310;44.626;11.176;2023-04-01T12:06:07;25.40;52.10
16402;DHT22;8310;44.626;11.176;2023-04-01T12:08:44;25.40;54.60
16402;DHT22;8310;44.626;11.176;2023-04-01T12:11:19;25.40;51.90
16402;DHT22;8310;44.626;11.176;2023-04-01T12:13:55;25.30;50.00
16402;DHT22;8310;44.626;11.176;2023-04-01T12:16:56;25.20;53.70
16402;DHT22;8310;44.626;11.176;2023-04-01T12:19:36;25.20;54.20
16402;DHT22;8310;44.626;11.176;2023-04-01T12:22:21;25.30;54.20
16402;DHT22;8310;44.626;11.176;2023-04-01T12:24:58;25.30;49.60
16402;DHT22;8310;44.626;11.176;2023-04-01T12:27:45;25.40;54.50
16402;DHT22;8310;44.626;11.176;2023-04-01T12:33:45;25.50;54.90
16402;DHT22;8310;44.626;11.176;2023-04-01T12:36:40;25.50;54.20
16402;DHT22;8310;44.626;11.176;2023-04-01T12:39:47;25.50;47.50
16402;DHT22;8310;44.626;11.176;2023-04-01T12:42:25;25.40;53.70
16402;DHT22;8310;44.626;11.176;2023-04-01T12:45:16;25.40;54.40
16402;DHT22;8310;44.626;11.176;2023-04-01T12:48:19;25.50;54.80
16402;DHT22;8310;44.626;11.176;2023-04-01T12:54:17;25.60;52.80
16402;DHT22;8310;44.626;11.176;2023-04-01T12:56:55;25.60;54.10
16402;DHT22;8310;44.626;11.176;2023-04-01T12:59:43;25.60;54.80
16402;DHT22;8310;44.626;11.176;2023-04-01T13:02:19;25.70;54.40
16402;DHT22;8310;44.626;11.176;2023-04-01T13:05:20;25.80;54.60
16402;DHT22;8310;44.626;11.176;2023-04-01T13:11:06;25.80;54.20
16402;DHT22;8310;44.626;11.176;2023-04-01T13:14:09;25.80;54.10
16402;DHT22;8310;44.626;11.176;2023-04-01T13:16:42;25.80;52.70
16402;DHT22;8310;44.626;11.176;2023-04-01T13:19:21;25.80;51.30
16402;DHT22;8310;44.626;11.176;2023-04-01T13:21:57;25.70;53.30
16402;DHT22;8310;44.626;11.176;2023-04-01T13:24:35;25.80;53.60
16402;DHT22;8310;44.626;11.176;2023-04-01T13:27:12;25.80;54.00
16402;DHT22;8310;44.626;11.176;2023-04-01T13:29:57;26.00;54.30
16402;DHT22;8310;44.626;11.176;2023-04-01T13:32:34;26.10;54.40
16402;DHT22;8310;44.626;11.176;2023-04-01T13:35:15;26.20;54.30
16402;DHT22;8310;44.626;11.176;2023-04-01T13:37:57;26.30;54.40
16402;DHT22;8310;44.626;11.176;2023-04-01T13:40:39;26.40;54.40
16402;DHT22;8310;44.626;11.176;2023-04-01T13:43:14;26.50;54.20
16402;DHT22;8310;44.626;11.176;2023-04-01T13:46:06;26.60;54.40
16402;DHT22;8310;44.626;11.176;2023-04-01T13:48:48;26.60;54.30
16402;DHT22;8310;44.626;11.176;2023-04-01T13:51:33;26.70;54.40
16402;DHT22;8310;44.626;11.176;2023-04-01T13:54:41;26.80;54.50
16402;DHT22;8310;44.626;11.176;2023-04-01T13:57:27;26.90;54.60
16402;DHT22;8310;44.626;11.176;2023-04-01T14:00:20;27.00;54.60
16402;DHT22;8310;44.626;11.176;2023-04-01T14:03:10;27.10;54.00
16402;DHT22;8310;44.626;11.176;2023-04-01T14:09:06;27.10;53.20
16402;DHT22;8310;44.626;11.176;2023-04-01T14:11:45;27.00;53.70
16402;DHT22;8310;44.626;11.176;2023-04-01T14:14:24;27.10;54.00
16402;DHT22;8310;44.626;11.176;2023-04-01T14:17:23;27.10;54.00
16402;DHT22;8310;44.626;11.176;2023-04-01T14:23:07;27.40;54.40
16402;DHT22;8310;44.626;11.176;2023-04-01T14:26:07;27.50;54.10
16402;DHT22;8310;44.626;11.176;2023-04-01T14:28:41;27.60;54.10
16402;DHT22;8310;44.626;11.176;2023-04-01T14:31:38;27.60;54.20
16402;DHT22;8310;44.626;11.176;2023-04-01T14:34:23;27.70;54.20
16402;DHT22;8310;44.626;11.176;2023-04-01T14:37:03;27.80;53.80
16402;DHT22;8310;44.626;11.176;2023-04-01T14:39:53;27.80;53.80
16402;DHT22;8310;44.626;11.176;2023-04-01T14:42:45;27.80;53.80
16402;DHT22;8310;44.626;11.176;2023-04-01T14:45:28;27.80;53.80
16402;DHT22;8310;44.626;11.176;2023-04-01T14:48:13;27.90;53.90
16402;DHT22;8310;44.626;11.176;2023-04-01T14:50:46;27.80;48.10
16402;DHT22;8310;44.626;11.176;2023-04-01T14:53:26;27.70;49.20
16402;DHT22;8310;44.626;11.176;2023-04-01T14:55:57;27.50;51.80
16402;DHT22;8310;44.626;11.176;2023-04-01T14:58:40;27.40;52.20
16402;DHT22;8310;44.626;11.176;2023-04-01T15:01:18;27.40;52.40
16402;DHT22;8310;44.626;11.176;2023-04-01T15:03:53;27.40;52.30
16402;DHT22;8310;44.626;11.176;2023-04-01T15:09:36;27.40;52.50
16402;DHT22;8310;44.626;11.176;2023-04-01T15:12:15;27.40;52.50
16402;DHT22;8310;44.626;11.176;2023-04-01T15:14:54;27.40;52.50
16402;DHT22;8310;44.626;11.176;2023-04-01T15:17:41;27.30;52.70
16402;DHT22;8310;44.626;11.176;2023-04-01T15:20:37;27.40;53.00
16402;DHT22;8310;44.626;11.176;2023-04-01T15:23:32;27.60;53.10
16402;DHT22;8310;44.626;11.176;2023-04-01T15:26:20;27.70;53.00
16402;DHT22;8310;44.626;11.176;2023-04-01T15:29:13;27.80;52.90
16402;DHT22;8310;44.626;11.176;2023-04-01T15:31:48;27.90;52.80
16402;DHT22;8310;44.626;11.176;2023-04-01T15:34:26;27.90;52.70
16402;DHT22;8310;44.626;11.176;2023-04-01T15:37:00;27.90;52.60
16402;DHT22;8310;44.626;11.176;2023-04-01T15:39:43;27.90;53.10
16402;DHT22;8310;44.626;11.176;2023-04-01T15:42:25;27.80;50.50
16402;DHT22;8310;44.626;11.176;2023-04-01T15:45:10;27.60;49.40
16402;DHT22;8310;44.626;11.176;2023-04-01T15:47:44;27.40;50.90
16402;DHT22;8310;44.626;11.176;2023-04-01T15:50:47;27.30;51.30
16402;DHT22;8310;44.626;11.176;2023-04-01T15:53:24;27.20;51.10
16402;DHT22;8310;44.626;11.176;2023-04-01T15:55:58;27.10;50.90
16402;DHT22;8310;44.626;11.176;2023-04-01T15:58:46;26.90;49.80
16402;DHT22;8310;44.626;11.176;2023-04-01T16:01:26;26.80;50.90
16402;DHT22;8310;44.626;11.176;2023-04-01T16:03:59;26.70;47.40
16402;DHT22;8310;44.626;11.176;2023-04-01T16:07:01;26.60;47.10
16402;DHT22;8310;44.626;11.176;2023-04-01T16:12:28;26.30;44.40
16402;DHT22;8310;44.626;11.176;2023-04-01T16:15:09;26.20;45.80
16402;DHT22;8310;44.626;11.176;2023-04-01T16:18:05;26.00;46.30
16402;DHT22;8310;44.626;11.176;2023-04-01T16:20:44;26.00;45.70
16402;DHT22;8310;44.626;11.176;2023-04-01T16:23:18;25.90;48.20
16402;DHT22;8310;44.626;11.176;2023-04-01T16:25:57;25.90;47.80
16402;DHT22;8310;44.626;11.176;2023-04-01T16:28:30;25.80;46.10
16402;DHT22;8310;44.626;11.176;2023-04-01T16:31:06;25.80;49.00
16402;DHT22;8310;44.626;11.176;2023-04-01T16:33:44;25.80;49.30
16402;DHT22;8310;44.626;11.176;2023-04-01T16:36:22;25.80;49.50
16402;DHT22;8310;44.626;11.176;2023-04-01T16:39:05;25.80;49.50
16402;DHT22;8310;44.626;11.176;2023-04-01T16:41:38;25.80;48.70
16402;DHT22;8310;44.626;11.176;2023-04-01T16:44:18;25.80;49.20
16402;DHT22;8310;44.626;11.176;2023-04-01T16:46:51;25.80;49.30
16402;DHT22;8310;44.626;11.176;2023-04-01T16:49:30;25.70;47.90
16402;DHT22;8310;44.626;11.176;2023-04-01T16:52:13;25.70;48.20
16402;DHT22;8310;44.626;11.176;2023-04-01T16:54:45;25.50;47.50
16402;DHT22;8310;44.626;11.176;2023-04-01T16:57:19;25.10;47.50
16402;DHT22;8310;44.626;11.176;2023-04-01T16:59:53;24.80;46.80
16402;DHT22;8310;44.626;11.176;2023-04-01T17:02:26;24.50;46.70
16402;DHT22;8310;44.626;11.176;2023-04-01T17:05:00;24.10;46.40
16402;DHT22;8310;44.626;11.176;2023-04-01T17:07:38;23.80;46.20
16402;DHT22;8310;44.626;11.176;2023-04-01T17:16:27;22.90;46.90
16402;DHT22;8310;44.626;11.176;2023-04-01T17:19:05;22.70;45.70
16402;DHT22;8310;44.626;11.176;2023-04-01T17:21:56;22.60;47.20
16402;DHT22;8310;44.626;11.176;2023-04-01T17:24:37;22.40;47.00
16402;DHT22;8310;44.626;11.176;2023-04-01T17:27:18;22.30;46.40
16402;DHT22;8310;44.626;11.176;2023-04-01T17:30:08;22.10;46.70
16402;DHT22;8310;44.626;11.176;2023-04-01T17:32:50;21.90;46.70
16402;DHT22;8310;44.626;11.176;2023-04-01T17:35:22;21.80;46.90
16402;DHT22;8310;44.626;11.176;2023-04-01T17:38:01;21.70;46.90
16402;DHT22;8310;44.626;11.176;2023-04-01T17:40:46;21.60;47.00
16402;DHT22;8310;44.626;11.176;2023-04-01T17:43:24;21.50;46.90
16402;DHT22;8310;44.626;11.176;2023-04-01T17:45:57;21.30;46.50
16402;DHT22;8310;44.626;11.176;2023-04-01T17:48:36;21.10;46.40
16402;DHT22;8310;44.626;11.176;2023-04-01T17:51:24;20.90;46.40
16402;DHT22;8310;44.626;11.176;2023-04-01T17:54:04;20.60;46.50
16402;DHT22;8310;44.626;11.176;2023-04-01T17:56:44;20.50;46.50
16402;DHT22;8310;44.626;11.176;2023-04-01T17:59:26;20.40;46.30
16402;DHT22;8310;44.626;11.176;2023-04-01T18:02:05;20.20;46.30
16402;DHT22;8310;44.626;11.176;2023-04-01T18:04:51;20.00;46.40
16402;DHT22;8310;44.626;11.176;2023-04-01T18:08:03;19.80;46.30
16402;DHT22;8310;44.626;11.176;2023-04-01T18:10:40;19.60;46.30
16402;DHT22;8310;44.626;11.176;2023-04-01T18:13:30;19.40;46.20
16402;DHT22;8310;44.626;11.176;2023-04-01T18:16:12;19.30;46.30
16402;DHT22;8310;44.626;11.176;2023-04-01T18:18:50;19.10;46.30